createdAt,value
2022-10-26T00:04:54.381Z,99357.06
2022-10-26T00:09:57.314Z,99360.50
2022-10-26T00:15:00.236Z,99365.72
2022-10-26T00:20:04.978Z,99374.59
2022-10-26T00:25:08.582Z,99375.19
2022-10-26T00:30:11.698Z,99373.41
2022-10-26T00:35:23.020Z,99371.56
2022-10-26T00:40:29.746Z,99377.78
2022-10-26T00:45:32.899Z,99377.78
2022-10-26T00:50:43.015Z,99371.13
2022-10-26T00:55:48.321Z,99371.34
2022-10-26T01:00:51.723Z,99378.91
2022-10-26T01:05:58.716Z,99378.34
2022-10-26T01:11:02.604Z,99368.81
2022-10-26T01:16:22.463Z,99380.78
2022-10-26T01:21:52.874Z,99375.44
2022-10-26T01:27:23.179Z,99365.97
2022-10-26T01:32:33.895Z,99369.53
2022-10-26T01:37:40.988Z,99369.97
2022-10-26T01:42:50.931Z,99364.28
2022-10-26T01:47:56.165Z,99363.88
2022-10-26T01:52:59.588Z,99367.50
2022-10-26T01:58:12.063Z,99364.25
2022-10-26T02:03:25.155Z,99366.66
2022-10-26T02:08:54.093Z,99369.38
2022-10-26T02:14:06.113Z,99362.25
2022-10-26T02:19:21.031Z,99349.94
2022-10-26T02:24:25.856Z,99361.66
2022-10-26T02:29:31.347Z,99353.22
2022-10-26T02:34:38.843Z,99351.03
2022-10-26T02:39:42.884Z,99346.78
2022-10-26T02:44:50.351Z,99346.38
2022-10-26T02:49:55.907Z,99353.56
2022-10-26T02:55:04.276Z,99343.53
2022-10-26T03:00:08.817Z,99350.94
2022-10-26T03:05:16.919Z,99346.53
2022-10-26T03:10:20.405Z,99346.03
2022-10-26T03:15:23.376Z,99344.16
2022-10-26T03:20:27.654Z,99343.19
2022-10-26T03:25:30.700Z,99347.31
2022-10-26T03:30:33.875Z,99340.06
2022-10-26T03:35:38.156Z,99346.47
2022-10-26T03:40:42.174Z,99345.22
2022-10-26T03:45:45.084Z,99352.06
2022-10-26T03:50:49.334Z,99347.22
2022-10-26T03:55:52.248Z,99347.59
2022-10-26T04:00:55.124Z,99355.06
2022-10-26T04:06:01.706Z,99350.09
2022-10-26T04:11:04.941Z,99348.09
2022-10-26T04:16:08.396Z,99346.59
2022-10-26T04:21:12.683Z,99347.13
2022-10-26T04:26:15.597Z,99352.22
2022-10-26T04:31:18.472Z,99342.81
2022-10-26T04:36:22.699Z,99349.88
2022-10-26T04:41:25.575Z,99340.47
2022-10-26T04:46:28.467Z,99337.28
2022-10-26T04:51:32.754Z,99334.00
2022-10-26T04:56:35.730Z,99329.31
2022-10-26T05:01:38.733Z,99332.69
2022-10-26T05:06:43.108Z,99327.41
2022-10-26T05:11:46.011Z,99321.75
2022-10-26T05:16:48.977Z,99325.34
2022-10-26T05:21:53.695Z,99322.00
2022-10-26T05:26:56.691Z,99327.78
2022-10-26T05:31:59.575Z,99320.31
2022-10-26T05:37:03.867Z,99320.19
2022-10-26T05:42:06.840Z,99328.53
2022-10-26T05:47:09.740Z,99332.13
2022-10-26T05:52:14.051Z,99330.50
2022-10-26T05:57:17.484Z,99336.78
2022-10-26T06:02:34.229Z,99343.44
2022-10-26T06:07:39.160Z,99352.75
2022-10-26T06:12:42.585Z,99351.22
2022-10-26T06:17:56.785Z,99359.75
2022-10-26T06:23:14.504Z,99364.38
2022-10-26T06:33:35.412Z,99381.13
2022-10-26T06:38:44.427Z,99380.16
2022-10-26T06:43:47.977Z,99375.81
2022-10-26T06:48:58.359Z,99371.16
2022-10-26T06:54:07.977Z,99378.66
2022-10-26T06:59:18.942Z,99379.66
2022-10-26T07:04:21.858Z,99382.41
2022-10-26T07:09:26.147Z,99379.06
2022-10-26T07:14:29.046Z,99393.19
2022-10-26T07:19:31.929Z,99378.63
2022-10-26T07:24:43.766Z,99384.44
2022-10-26T07:29:47.895Z,99383.38
2022-10-26T07:34:50.820Z,99388.56
2022-10-26T07:39:55.109Z,99377.94
2022-10-26T07:44:58.009Z,99390.44
2022-10-26T07:50:00.919Z,99388.16
2022-10-26T07:55:05.802Z,99387.00
2022-10-26T08:00:10.684Z,99391.56
2022-10-26T08:05:13.696Z,99398.34
2022-10-26T08:10:18.127Z,99386.41
2022-10-26T08:15:21.285Z,99377.69
2022-10-26T08:20:24.193Z,99376.00
2022-10-26T08:25:28.876Z,99387.31
2022-10-26T08:30:32.379Z,99378.59
2022-10-26T08:35:35.622Z,99382.66
2022-10-26T08:40:42.636Z,99376.16
2022-10-26T08:45:51.221Z,99376.03
2022-10-26T08:50:56.768Z,99378.19
2022-10-26T08:56:05.619Z,99376.97
2022-10-26T09:01:10.045Z,99378.28
2022-10-26T09:06:22.109Z,99381.50
2022-10-26T09:11:45.614Z,99377.88
2022-10-26T09:17:01.399Z,99384.44
2022-10-26T09:22:13.530Z,99389.41
2022-10-26T09:27:23.543Z,99385.53
2022-10-26T09:32:30.755Z,99396.66
2022-10-26T09:37:38.529Z,99391.03
2022-10-26T09:42:48.001Z,99374.72
2022-10-26T09:47:53.626Z,99380.94
2022-10-26T09:52:56.899Z,99376.88
2022-10-26T09:58:04.992Z,99379.88
2022-10-26T10:03:19.693Z,99376.38
2022-10-26T10:08:24.632Z,99371.66
2022-10-26T10:13:31.676Z,99368.22
2022-10-26T10:18:36.157Z,99361.28
2022-10-26T10:23:49.732Z,99363.84
2022-10-26T10:29:03.779Z,99357.47
2022-10-26T10:34:17.724Z,99357.63
2022-10-26T10:39:40.384Z,99360.47
2022-10-26T10:44:46.413Z,99355.94
2022-10-26T10:49:54.598Z,99353.91
2022-10-26T10:55:14.975Z,99355.31
2022-10-26T11:00:20.864Z,99355.56
2022-10-26T11:05:30.726Z,99361.31
2022-10-26T11:10:38.195Z,99351.88
2022-10-26T11:15:45.365Z,99356.94
2022-10-26T11:20:53.240Z,99360.88
2022-10-26T11:26:00.950Z,99360.41
2022-10-26T11:31:13.180Z,99367.00
2022-10-26T11:36:21.776Z,99360.53
2022-10-26T11:41:30.703Z,99364.91
2022-10-26T11:46:39.787Z,99364.34
2022-10-26T11:51:46.007Z,99370.50
2022-10-26T11:56:52.959Z,99375.00
2022-10-26T12:02:01.426Z,99369.16
2022-10-26T12:07:09.671Z,99380.69
2022-10-26T12:12:21.074Z,99372.47
2022-10-26T12:17:30.357Z,99376.94
2022-10-26T12:22:39.806Z,99385.88
2022-10-26T12:27:55.025Z,99386.25
2022-10-26T12:33:01.499Z,99380.22
2022-10-26T12:38:49.589Z,99380.69
2022-10-26T12:43:57.587Z,99381.63
2022-10-26T12:49:01.909Z,99387.28
2022-10-26T12:54:19.023Z,99391.84
2022-10-26T12:59:29.300Z,99391.81
2022-10-26T13:05:04.107Z,99384.31
2022-10-26T13:10:21.615Z,99389.91
2022-10-26T13:15:28.273Z,99391.47
2022-10-26T13:20:34.848Z,99395.00
2022-10-26T13:25:43.941Z,99394.63
2022-10-26T13:30:50.020Z,99385.75
2022-10-26T13:35:57.296Z,99391.47
2022-10-26T13:41:18.650Z,99397.66
2022-10-26T13:46:27.589Z,99399.72
2022-10-26T13:51:42.018Z,99400.19
2022-10-26T13:56:58.548Z,99405.25
2022-10-26T14:02:08.877Z,99407.91
2022-10-26T14:07:20.934Z,99407.78
2022-10-26T14:12:25.951Z,99405.06
2022-10-26T14:17:28.981Z,99399.28
2022-10-26T14:22:33.341Z,99408.94
2022-10-26T14:27:40.544Z,99409.44
2022-10-26T14:32:43.504Z,99405.84
2022-10-26T14:37:52.681Z,99409.00
2022-10-26T14:42:58.854Z,99422.28
2022-10-26T14:48:03.317Z,99425.25
2022-10-26T14:53:16.314Z,99432.84
2022-10-26T14:58:26.751Z,99434.03
2022-10-26T15:03:30.474Z,99425.63
2022-10-26T15:08:52.657Z,99425.16
2022-10-26T15:14:00.711Z,99432.94
2022-10-26T15:19:10.821Z,99433.84
2022-10-26T15:24:30.201Z,99436.00
2022-10-26T15:29:40.037Z,99437.59
2022-10-26T15:34:42.994Z,99438.09
2022-10-26T15:39:47.276Z,99436.78
2022-10-26T15:44:53.457Z,99434.63
2022-10-26T15:49:56.359Z,99440.94
2022-10-26T15:55:00.628Z,99446.56
2022-10-26T16:00:04.784Z,99458.09
2022-10-26T16:05:27.740Z,99470.16
2022-10-26T16:10:32.090Z,99465.59
2022-10-26T16:15:35.081Z,99466.91
2022-10-26T16:20:38.254Z,99474.50
2022-10-26T16:25:44.985Z,99483.25
2022-10-26T16:30:47.923Z,99493.34
2022-10-26T16:35:57.128Z,99497.50
2022-10-26T16:41:06.196Z,99494.06
2022-10-26T16:46:10.711Z,99496.38
2022-10-26T16:51:15.645Z,99507.66
2022-10-26T16:56:22.360Z,99504.69
2022-10-26T17:01:25.714Z,99509.75
2022-10-26T17:06:28.721Z,99521.09
2022-10-26T17:11:32.976Z,99518.81
2022-10-26T17:16:35.995Z,99525.72
2022-10-26T17:21:38.875Z,99530.88
2022-10-26T17:26:43.267Z,99534.91
2022-10-26T17:31:46.160Z,99545.00
2022-10-26T17:36:49.071Z,99564.63
2022-10-26T17:41:53.314Z,99555.22
2022-10-26T17:46:56.211Z,99571.59
2022-10-26T17:51:59.063Z,99573.25
2022-10-26T17:57:03.349Z,99578.28
2022-10-26T18:02:06.352Z,99586.31
2022-10-26T18:07:09.332Z,99589.16
2022-10-26T18:12:13.837Z,99601.06
2022-10-26T18:17:16.771Z,99606.94
2022-10-26T18:22:19.647Z,99612.44
2022-10-26T18:27:23.923Z,99605.63
2022-10-26T18:32:26.808Z,99627.63
2022-10-26T18:37:29.708Z,99624.88
2022-10-26T18:42:33.998Z,99637.84
2022-10-26T18:47:36.911Z,99643.50
2022-10-26T18:52:40.003Z,99645.66
2022-10-26T18:57:44.234Z,99643.63
2022-10-26T19:02:52.286Z,99655.78
2022-10-26T19:07:55.605Z,99658.59
2022-10-26T19:13:01.197Z,99671.91
2022-10-26T19:18:04.406Z,99682.75
2022-10-26T19:23:07.492Z,99687.50
2022-10-26T19:28:11.711Z,99695.41
2022-10-26T19:33:14.671Z,99699.53
2022-10-26T19:38:17.604Z,99702.13
2022-10-26T19:43:21.925Z,99707.66
2022-10-26T19:48:25.096Z,99719.09
2022-10-26T19:53:27.987Z,99712.28
2022-10-26T19:58:33.024Z,99721.75
2022-10-26T20:03:36.318Z,99719.31
2022-10-26T20:08:40.407Z,99735.13
2022-10-26T20:13:46.001Z,99740.19
2022-10-26T20:18:49.290Z,99745.84
2022-10-26T20:23:52.208Z,99752.53
2022-10-26T20:28:56.517Z,99757.16
2022-10-26T20:33:59.392Z,99761.19
2022-10-26T20:39:02.834Z,99763.50
2022-10-26T20:44:15.103Z,99753.59
2022-10-26T20:49:18.482Z,99775.28
2022-10-26T20:54:26.914Z,99764.13
2022-10-26T20:59:36.474Z,99771.13
2022-10-26T21:04:39.428Z,99784.22
2022-10-26T21:09:42.437Z,99784.72
2022-10-26T21:14:46.691Z,99788.50
2022-10-26T21:19:49.588Z,99787.91
2022-10-26T21:24:52.532Z,99783.59
2022-10-26T21:29:57.492Z,99786.56
2022-10-26T21:35:00.507Z,99800.00
2022-10-26T21:40:03.385Z,99799.84
2022-10-26T21:45:09.248Z,99797.28
2022-10-26T21:50:12.316Z,99805.38
2022-10-26T21:55:15.319Z,99818.25
2022-10-26T22:00:20.143Z,99816.00
2022-10-26T22:05:23.014Z,99820.00
2022-10-26T22:10:26.097Z,99834.25
2022-10-26T22:15:30.364Z,99837.28
2022-10-26T22:20:33.898Z,99832.91
2022-10-26T22:25:36.825Z,99829.44
2022-10-26T22:30:41.064Z,99825.78
2022-10-26T22:35:44.622Z,99824.75
2022-10-26T22:40:54.795Z,99817.63
2022-10-26T22:46:03.956Z,99815.56
2022-10-26T22:51:07.815Z,99825.25
2022-10-26T22:56:12.689Z,99832.50
2022-10-26T23:01:19.693Z,99844.13
2022-10-26T23:06:23.719Z,99855.88
2022-10-26T23:11:29.353Z,99850.25
2022-10-26T23:16:33.699Z,99849.84
2022-10-26T23:21:36.688Z,99866.78
2022-10-26T23:26:39.593Z,99857.25
2022-10-26T23:31:43.822Z,99866.13
2022-10-26T23:36:48.028Z,99872.56
2022-10-26T23:41:50.891Z,99870.19
2022-10-26T23:46:55.147Z,99868.94
2022-10-26T23:51:58.083Z,99870.78
2022-10-26T23:57:01.091Z,99874.22
